createdAt,value
2023-03-11T00:00:47.137Z,99024.19
2023-03-11T00:05:46.515Z,99040.97
2023-03-11T00:10:45.450Z,99036.59
2023-03-11T00:15:42.453Z,99054.94
2023-03-11T00:20:42.203Z,99055.13
2023-03-11T00:25:39.518Z,99063.88
2023-03-11T00:30:36.403Z,99069.09
2023-03-11T00:35:33.911Z,99076.13
2023-03-11T00:40:32.198Z,99100.78
2023-03-11T00:45:29.133Z,99108.44
2023-03-11T00:50:30.994Z,99120.59
2023-03-11T00:55:30.204Z,99119.00
2023-03-11T01:00:28.029Z,99127.59
2023-03-11T01:05:28.667Z,99141.50
2023-03-11T01:10:25.577Z,99140.47
2023-03-11T01:15:28.859Z,99150.06
2023-03-11T01:20:25.490Z,99156.25
2023-03-11T01:25:23.300Z,99160.53
2023-03-11T01:30:22.743Z,99165.00
2023-03-11T01:35:21.553Z,99180.50
2023-03-11T01:40:31.885Z,99190.03
2023-03-11T01:46:03.025Z,99200.50
2023-03-11T01:50:59.719Z,99205.72
2023-03-11T01:55:56.316Z,99203.09
2023-03-11T02:00:55.182Z,99217.06
2023-03-11T02:05:53.050Z,99220.47
2023-03-11T02:10:53.086Z,99223.09
2023-03-11T02:15:49.747Z,99231.00
2023-03-11T02:21:07.685Z,99231.06
2023-03-11T02:26:19.108Z,99243.28
2023-03-11T02:31:16.911Z,99248.59
2023-03-11T02:36:38.341Z,99249.59
2023-03-11T02:41:38.265Z,99251.38
2023-03-11T02:46:36.099Z,99261.88
2023-03-11T02:51:33.449Z,99259.31
2023-03-11T02:56:29.893Z,99272.50
2023-03-11T03:01:26.381Z,99275.31
2023-03-11T03:06:22.904Z,99278.94
2023-03-11T03:11:19.358Z,99285.94
2023-03-11T03:16:15.743Z,99289.47
2023-03-11T03:21:12.145Z,99298.19
2023-03-11T03:26:08.498Z,99299.06
2023-03-11T03:31:10.245Z,99305.44
2023-03-11T03:36:12.217Z,99321.16
2023-03-11T03:41:09.571Z,99333.31
2023-03-11T03:46:06.304Z,99344.50
2023-03-11T03:51:08.040Z,99347.91
2023-03-11T03:56:06.873Z,99353.13
2023-03-11T04:01:05.167Z,99364.44
2023-03-11T04:06:24.028Z,99369.66
2023-03-11T04:11:20.502Z,99374.09
2023-03-11T04:16:19.706Z,99377.56
2023-03-11T04:21:16.158Z,99390.66
2023-03-11T04:26:13.010Z,99398.72
2023-03-11T04:31:09.403Z,99410.09
2023-03-11T04:36:07.667Z,99415.47
2023-03-11T04:41:06.021Z,99420.63
2023-03-11T04:46:03.032Z,99432.97
2023-03-11T04:50:59.357Z,99432.13
2023-03-11T04:55:55.820Z,99431.34
2023-03-11T05:00:52.840Z,99444.47
2023-03-11T05:05:49.232Z,99452.44
2023-03-11T05:10:45.590Z,99457.88
2023-03-11T05:15:42.575Z,99460.63
2023-03-11T05:20:39.244Z,99462.75
2023-03-11T05:25:35.779Z,99467.16
2023-03-11T05:30:32.222Z,99471.53
2023-03-11T05:35:28.926Z,99478.59
2023-03-11T05:40:25.303Z,99482.97
2023-03-11T05:45:21.610Z,99490.91
2023-03-11T05:50:18.070Z,99508.56
2023-03-11T05:55:14.453Z,99512.50
2023-03-11T06:00:12.104Z,99508.47
2023-03-11T06:05:10.501Z,99515.38
2023-03-11T06:10:09.671Z,99533.09
2023-03-11T06:15:07.280Z,99531.50
2023-03-11T06:20:05.848Z,99534.09
2023-03-11T06:25:02.237Z,99542.50
2023-03-11T06:29:58.716Z,99552.75
2023-03-11T06:34:55.375Z,99561.09
2023-03-11T06:39:53.313Z,99565.06
2023-03-11T06:44:50.156Z,99563.50
2023-03-11T06:49:46.559Z,99559.22
2023-03-11T06:54:43.318Z,99571.47
2023-03-11T06:59:39.772Z,99585.22
2023-03-11T07:04:36.131Z,99587.63
2023-03-11T07:09:32.732Z,99592.91
2023-03-11T07:14:29.097Z,99606.13
2023-03-11T07:19:25.480Z,99605.19
2023-03-11T07:24:21.883Z,99604.56
2023-03-11T07:29:19.035Z,99607.31
2023-03-11T07:34:15.435Z,99608.63
2023-03-11T07:39:17.769Z,99619.19
2023-03-11T07:44:15.812Z,99629.47
2023-03-11T07:49:12.954Z,99630.53
2023-03-11T07:54:10.777Z,99636.19
2023-03-11T07:59:07.156Z,99645.81
2023-03-11T08:04:06.313Z,99641.94
2023-03-11T08:09:06.235Z,99643.00
2023-03-11T08:14:03.487Z,99657.13
2023-03-11T08:19:00.170Z,99664.66
2023-03-11T08:23:58.757Z,99662.22
2023-03-11T08:28:56.167Z,99660.28
2023-03-11T08:33:57.942Z,99668.38
2023-03-11T08:38:54.604Z,99674.13
2023-03-11T08:43:52.312Z,99672.72
2023-03-11T08:48:48.819Z,99677.97
2023-03-11T08:53:45.453Z,99690.63
2023-03-11T08:58:41.841Z,99694.28
2023-03-11T09:03:38.405Z,99689.47
2023-03-11T09:08:35.337Z,99708.84
2023-03-11T09:13:31.797Z,99700.88
2023-03-11T09:18:29.277Z,99711.16
2023-03-11T09:23:25.718Z,99710.75
2023-03-11T09:28:22.202Z,99713.72
2023-03-11T09:33:18.602Z,99709.41
2023-03-11T09:38:14.997Z,99706.97
2023-03-11T09:43:26.266Z,99708.50
2023-03-11T09:48:55.538Z,99707.31
2023-03-11T09:53:59.272Z,99709.16
2023-03-11T09:59:07.955Z,99713.31
2023-03-11T10:04:06.975Z,99727.38
2023-03-11T10:09:33.287Z,99723.50
2023-03-11T10:14:48.280Z,99724.75
2023-03-11T10:19:54.919Z,99732.19
2023-03-11T10:25:10.354Z,99745.00
2023-03-11T10:30:47.032Z,99739.47
2023-03-11T10:35:47.338Z,99746.50
2023-03-11T10:40:47.387Z,99765.22
2023-03-11T10:45:46.107Z,99759.06
2023-03-11T10:51:12.324Z,99766.88
2023-03-11T10:56:25.055Z,99761.78
2023-03-11T11:01:22.182Z,99755.25
2023-03-11T11:06:39.894Z,99761.50
2023-03-11T11:11:36.479Z,99768.94
2023-03-11T11:16:35.135Z,99768.81
2023-03-11T11:21:49.606Z,99764.56
2023-03-11T11:27:04.906Z,99763.22
2023-03-11T11:32:17.460Z,99761.75
2023-03-11T11:37:14.585Z,99768.84
2023-03-11T11:42:14.628Z,99771.41
2023-03-11T11:47:18.451Z,99773.72
2023-03-11T11:52:37.690Z,99754.19
2023-03-11T11:57:34.279Z,99753.63
2023-03-11T12:03:10.423Z,99758.59
2023-03-11T12:08:19.969Z,99763.13
2023-03-11T12:13:44.266Z,99760.63
2023-03-11T12:18:50.200Z,99753.72
2023-03-11T12:23:58.637Z,99749.91
2023-03-11T12:29:01.809Z,99754.84
2023-03-11T12:34:02.384Z,99758.41
2023-03-11T12:39:01.082Z,99764.75
2023-03-11T12:44:05.601Z,99766.81
2023-03-11T12:49:07.880Z,99755.66
2023-03-11T12:54:22.723Z,99753.47
2023-03-11T12:59:56.461Z,99752.03
2023-03-11T13:05:03.394Z,99752.91
2023-03-11T13:10:13.515Z,99754.13
2023-03-11T13:15:33.205Z,99763.56
2023-03-11T13:20:38.692Z,99772.19
2023-03-11T13:25:39.945Z,99770.50
2023-03-11T13:30:47.890Z,99777.34
2023-03-11T13:36:02.704Z,99786.81
2023-03-11T13:41:01.986Z,99777.06
2023-03-11T13:46:07.343Z,99775.28
2023-03-11T13:51:12.061Z,99791.66
2023-03-11T13:56:22.919Z,99799.81
2023-03-11T14:01:19.675Z,99791.06
2023-03-11T14:06:20.109Z,99792.47
2023-03-11T14:11:17.661Z,99795.44
2023-03-11T14:16:25.107Z,99799.28
2023-03-11T14:21:23.110Z,99796.09
2023-03-11T14:26:21.819Z,99797.66
2023-03-11T14:31:38.740Z,99798.16
2023-03-11T14:36:48.446Z,99794.13
2023-03-11T14:41:44.922Z,99803.00
2023-03-11T14:46:44.061Z,99807.28
2023-03-11T14:51:41.865Z,99809.31
2023-03-11T14:56:41.832Z,99814.47
2023-03-11T15:01:41.016Z,99815.56
2023-03-11T15:06:42.087Z,99808.16
2023-03-11T15:11:55.824Z,99807.34
2023-03-11T15:16:53.763Z,99809.81
2023-03-11T15:21:54.288Z,99807.91
2023-03-11T15:26:59.913Z,99812.63
2023-03-11T15:31:57.247Z,99806.50
2023-03-11T15:36:55.839Z,99807.34
2023-03-11T15:42:01.953Z,99799.47
2023-03-11T15:47:01.574Z,99806.88
2023-03-11T15:52:02.185Z,99815.88
2023-03-11T15:57:02.591Z,99813.94
2023-03-11T16:01:59.549Z,99820.91
2023-03-11T16:07:07.383Z,99819.88
2023-03-11T16:12:17.938Z,99825.41
2023-03-11T16:17:15.659Z,99817.13
2023-03-11T16:22:21.263Z,99825.03
2023-03-11T16:27:18.879Z,99827.84
2023-03-11T16:32:15.248Z,99830.22
2023-03-11T16:37:16.235Z,99840.16
2023-03-11T16:42:13.016Z,99833.97
2023-03-11T16:47:09.357Z,99839.44
2023-03-11T16:52:06.007Z,99844.25
2023-03-11T16:57:03.052Z,99848.50
2023-03-11T17:01:59.555Z,99848.59
2023-03-11T17:06:56.014Z,99858.13
2023-03-11T17:11:53.366Z,99858.19
2023-03-11T17:16:49.970Z,99863.38
2023-03-11T17:21:46.496Z,99865.13
2023-03-11T17:26:43.078Z,99869.53
2023-03-11T17:31:39.416Z,99870.72
2023-03-11T17:36:35.876Z,99878.63
2023-03-11T17:41:32.366Z,99884.66
2023-03-11T17:46:28.991Z,99887.63
2023-03-11T17:51:26.466Z,99883.81
2023-03-11T17:56:23.555Z,99889.22
2023-03-11T18:01:24.133Z,99885.66
2023-03-11T18:06:22.084Z,99892.72
2023-03-11T18:11:22.234Z,99890.47
2023-03-11T18:16:21.687Z,99905.59
2023-03-11T18:21:22.457Z,99889.13
2023-03-11T18:26:19.078Z,99895.06
2023-03-11T18:31:20.815Z,99907.09
2023-03-11T18:36:20.779Z,99899.16
2023-03-11T18:41:17.204Z,99898.66
2023-03-11T18:46:15.463Z,99904.47
2023-03-11T18:51:12.659Z,99908.31
2023-03-11T18:56:12.910Z,99917.44
2023-03-11T19:01:21.082Z,99914.38
2023-03-11T19:06:18.002Z,99917.22
2023-03-11T19:11:19.992Z,99915.16
2023-03-11T19:16:22.267Z,99904.97
2023-03-11T19:21:18.881Z,99900.50
2023-03-11T19:26:15.494Z,99899.19
2023-03-11T19:31:12.180Z,99913.44
2023-03-11T19:36:09.171Z,99922.41
2023-03-11T19:41:08.046Z,99931.22
2023-03-11T19:46:05.858Z,99925.63
2023-03-11T19:51:03.420Z,99926.72
2023-03-11T19:56:00.242Z,99916.50
2023-03-11T20:00:58.044Z,99927.41
2023-03-11T20:05:57.859Z,99928.25
2023-03-11T20:10:54.483Z,99930.44
2023-03-11T20:15:50.870Z,99933.00
2023-03-11T20:20:47.433Z,99926.09
2023-03-11T20:25:43.841Z,99934.28
2023-03-11T20:30:40.277Z,99940.75
2023-03-11T20:35:36.672Z,99942.78
2023-03-11T20:40:33.433Z,99948.19
2023-03-11T20:45:29.911Z,99948.50
2023-03-11T20:50:26.577Z,99957.63
2023-03-11T20:55:22.965Z,99954.09
2023-03-11T21:00:20.482Z,99946.13
2023-03-11T21:05:17.014Z,99938.06
2023-03-11T21:10:13.562Z,99950.28
2023-03-11T21:15:11.197Z,99952.84
2023-03-11T21:20:08.114Z,99945.41
2023-03-11T21:25:07.243Z,99950.63
2023-03-11T21:30:08.154Z,99958.13
2023-03-11T21:35:05.725Z,99961.31
2023-03-11T21:40:02.102Z,99959.94
2023-03-11T21:44:58.609Z,99959.34
2023-03-11T21:49:55.067Z,99956.34
2023-03-11T21:54:51.526Z,99954.41
2023-03-11T21:59:48.066Z,99953.66
2023-03-11T22:04:44.675Z,99951.59
2023-03-11T22:09:41.306Z,99951.41
2023-03-11T22:14:37.705Z,99953.78
2023-03-11T22:19:34.177Z,99968.81
2023-03-11T22:24:30.583Z,99965.59
2023-03-11T22:29:26.947Z,99956.75
2023-03-11T22:34:23.295Z,99958.94
2023-03-11T22:39:19.612Z,99963.84
2023-03-11T22:44:15.967Z,99964.38
2023-03-11T22:49:12.347Z,99976.25
2023-03-11T22:54:08.805Z,99978.09
2023-03-11T22:59:05.257Z,99974.69
2023-03-11T23:04:01.770Z,99974.78
2023-03-11T23:08:58.117Z,99979.66
2023-03-11T23:13:56.720Z,99985.69
2023-03-11T23:18:54.901Z,99985.34
2023-03-11T23:23:52.868Z,99993.06
2023-03-11T23:28:51.100Z,99989.44
2023-03-11T23:33:47.770Z,99985.47
2023-03-11T23:38:44.817Z,99989.75
2023-03-11T23:43:42.088Z,99991.25
2023-03-11T23:48:38.839Z,99988.28
2023-03-11T23:53:35.818Z,100002.06
2023-03-11T23:58:33.041Z,99997.69
